createdAt,value
2023-02-03T00:01:53.879Z,98.69
2023-02-03T00:04:20.741Z,97.09
2023-02-03T00:06:47.323Z,97.31
2023-02-03T00:09:15.158Z,97.54
2023-02-03T00:11:41.737Z,97.37
2023-02-03T00:14:08.364Z,97.66
2023-02-03T00:16:35.364Z,98.00
2023-02-03T00:19:02.064Z,97.72
2023-02-03T00:21:28.604Z,98.15
2023-02-03T00:23:55.080Z,97.40
2023-02-03T00:26:21.663Z,96.65
2023-02-03T00:28:48.149Z,96.65
2023-02-03T00:31:22.496Z,98.45
2023-02-03T00:33:57.281Z,98.19
2023-02-03T00:36:24.926Z,98.77
2023-02-03T00:38:51.505Z,98.67
2023-02-03T00:41:18.676Z,98.78
2023-02-03T00:43:45.259Z,98.41
2023-02-03T00:46:14.381Z,98.09
2023-02-03T00:48:41.103Z,98.34
2023-02-03T00:51:07.675Z,98.95
2023-02-03T00:53:34.261Z,97.46
2023-02-03T00:56:00.751Z,97.73
2023-02-03T00:58:27.360Z,97.59
2023-02-03T01:00:58.353Z,98.94
2023-02-03T01:03:24.919Z,100.00
2023-02-03T01:05:51.481Z,100.00
2023-02-03T01:08:18.437Z,99.93
2023-02-03T01:10:44.973Z,100.00
2023-02-03T01:13:11.544Z,100.00
2023-02-03T01:15:38.160Z,100.00
2023-02-03T01:18:04.684Z,100.00
2023-02-03T01:20:31.240Z,98.63
2023-02-03T01:22:57.759Z,96.88
2023-02-03T01:25:24.464Z,97.10
2023-02-03T01:27:51.038Z,96.06
2023-02-03T01:30:17.842Z,95.36
2023-02-03T01:32:44.336Z,96.09
2023-02-03T01:35:10.912Z,96.20
2023-02-03T01:37:37.424Z,96.59
2023-02-03T01:40:04.241Z,98.31
2023-02-03T01:42:33.773Z,100.00
2023-02-03T01:45:00.403Z,100.00
2023-02-03T01:47:31.438Z,100.00
2023-02-03T01:50:18.935Z,100.00
2023-02-03T01:52:49.090Z,100.00
2023-02-03T01:55:19.421Z,99.99
2023-02-03T01:57:51.205Z,100.00
2023-02-03T02:00:18.459Z,100.00
2023-02-03T02:02:46.460Z,99.78
2023-02-03T02:05:33.251Z,100.00
2023-02-03T02:08:01.147Z,99.02
2023-02-03T02:10:32.071Z,97.58
2023-02-03T02:12:59.116Z,97.76
2023-02-03T02:15:41.112Z,98.88
2023-02-03T02:18:16.331Z,99.45
2023-02-03T02:21:01.670Z,100.00
2023-02-03T02:23:45.165Z,100.00
2023-02-03T02:26:45.537Z,99.88
2023-02-03T02:29:28.721Z,100.00
2023-02-03T02:32:16.971Z,99.55
2023-02-03T02:35:08.449Z,100.00
2023-02-03T02:37:50.195Z,100.00
2023-02-03T02:40:25.040Z,99.77
2023-02-03T02:42:55.519Z,100.00
2023-02-03T02:45:31.614Z,99.95
2023-02-03T02:48:13.499Z,100.00
2023-02-03T02:50:43.377Z,100.00
2023-02-03T02:53:10.443Z,100.00
2023-02-03T02:55:38.763Z,100.00
2023-02-03T02:58:08.380Z,100.00
2023-02-03T03:00:36.911Z,100.00
2023-02-03T03:03:17.480Z,100.00
2023-02-03T03:05:49.962Z,100.00
2023-02-03T03:08:18.263Z,100.00
2023-02-03T03:10:47.225Z,100.00
2023-02-03T03:13:18.516Z,100.00
2023-02-03T03:15:45.819Z,99.78
2023-02-03T03:18:25.099Z,100.00
2023-02-03T03:21:05.953Z,100.00
2023-02-03T03:23:39.428Z,100.00
2023-02-03T03:26:09.389Z,100.00
2023-02-03T03:28:42.672Z,100.00
2023-02-03T03:31:09.352Z,100.00
2023-02-03T03:33:37.252Z,98.92
2023-02-03T03:36:10.720Z,99.07
2023-02-03T03:38:41.307Z,98.84
2023-02-03T03:41:21.847Z,97.87
2023-02-03T03:43:48.568Z,97.58
2023-02-03T03:46:19.862Z,97.83
2023-02-03T03:48:58.795Z,98.59
2023-02-03T03:51:38.810Z,98.40
2023-02-03T03:54:08.670Z,98.41
2023-02-03T03:56:50.713Z,98.45
2023-02-03T03:59:19.281Z,98.50
2023-02-03T04:01:46.644Z,99.25
2023-02-03T04:04:16.216Z,99.06
2023-02-03T04:06:42.764Z,99.85
2023-02-03T04:09:09.401Z,100.00
2023-02-03T04:12:08.685Z,99.59
2023-02-03T04:14:38.881Z,100.00
2023-02-03T04:17:05.615Z,100.00
2023-02-03T04:19:32.559Z,100.00
2023-02-03T04:21:59.109Z,100.00
2023-02-03T04:24:25.685Z,100.00
2023-02-03T04:26:52.252Z,99.50
2023-02-03T04:29:18.832Z,98.28
2023-02-03T04:31:45.415Z,97.63
2023-02-03T04:34:12.139Z,97.97
2023-02-03T04:36:38.718Z,98.68
2023-02-03T04:39:05.856Z,98.26
2023-02-03T04:41:32.493Z,98.93
2023-02-03T04:43:59.079Z,98.34
2023-02-03T04:46:25.767Z,98.44
2023-02-03T04:48:52.319Z,98.99
2023-02-03T04:51:18.889Z,99.34
2023-02-03T04:53:45.426Z,99.75
2023-02-03T04:56:12.022Z,100.00
2023-02-03T04:58:38.555Z,99.91
2023-02-03T05:01:10.066Z,99.92
2023-02-03T05:03:37.304Z,100.00
2023-02-03T05:06:06.470Z,100.00
2023-02-03T05:08:33.029Z,100.00
2023-02-03T05:11:01.868Z,100.00
2023-02-03T05:13:29.015Z,100.00
2023-02-03T05:15:55.559Z,100.00
2023-02-03T05:18:22.105Z,100.00
2023-02-03T05:20:48.644Z,100.00
2023-02-03T05:23:15.264Z,100.00
2023-02-03T05:25:43.676Z,100.00
2023-02-03T05:28:10.216Z,100.00
2023-02-03T05:30:36.885Z,100.00
2023-02-03T05:33:03.626Z,100.00
2023-02-03T05:35:30.217Z,100.00
2023-02-03T05:37:56.871Z,100.00
2023-02-03T05:40:43.142Z,100.00
2023-02-03T05:43:09.790Z,100.00
2023-02-03T05:45:36.343Z,100.00
2023-02-03T05:48:03.650Z,100.00
2023-02-03T05:50:33.326Z,100.00
2023-02-03T05:53:04.574Z,100.00
2023-02-03T05:55:32.863Z,100.00
2023-02-03T05:58:01.056Z,100.00
2023-02-03T06:00:28.672Z,100.00
2023-02-03T06:02:57.788Z,100.00
2023-02-03T06:05:25.235Z,100.00
2023-02-03T06:07:52.211Z,100.00
2023-02-03T06:10:19.103Z,100.00
2023-02-03T06:12:45.697Z,100.00
2023-02-03T06:15:12.343Z,100.00
2023-02-03T06:17:38.937Z,100.00
2023-02-03T06:20:07.203Z,100.00
2023-02-03T06:22:34.327Z,100.00
2023-02-03T06:25:01.019Z,100.00
2023-02-03T06:27:27.799Z,100.00
2023-02-03T06:29:54.615Z,100.00
2023-02-03T06:32:21.211Z,100.00
2023-02-03T06:34:47.780Z,100.00
2023-02-03T06:37:15.585Z,100.00
2023-02-03T06:39:42.104Z,100.00
2023-02-03T06:42:08.657Z,100.00
2023-02-03T06:44:35.215Z,100.00
2023-02-03T06:47:04.515Z,100.00
2023-02-03T06:49:31.038Z,100.00
2023-02-03T06:51:57.601Z,100.00
2023-02-03T06:54:24.129Z,100.00
2023-02-03T06:56:50.636Z,100.00
2023-02-03T06:59:17.241Z,100.00
2023-02-03T07:01:43.838Z,100.00
2023-02-03T07:04:10.469Z,100.00
2023-02-03T07:06:37.041Z,100.00
2023-02-03T07:09:04.963Z,100.00
2023-02-03T07:11:32.214Z,100.00
2023-02-03T07:13:59.485Z,100.00
2023-02-03T07:16:27.685Z,100.00
2023-02-03T07:18:54.226Z,100.00
2023-02-03T07:21:20.800Z,100.00
2023-02-03T07:23:48.601Z,100.00
2023-02-03T07:26:15.500Z,100.00
2023-02-03T07:28:42.075Z,100.00
2023-02-03T07:31:10.358Z,100.00
2023-02-03T07:33:37.993Z,100.00
2023-02-03T07:36:04.980Z,100.00
2023-02-03T07:38:32.030Z,100.00
2023-02-03T07:40:58.758Z,100.00
2023-02-03T07:43:25.632Z,100.00
2023-02-03T07:45:52.225Z,100.00
2023-02-03T07:48:18.748Z,100.00
2023-02-03T07:50:45.820Z,100.00
2023-02-03T07:53:12.405Z,100.00
2023-02-03T07:55:40.096Z,100.00
2023-02-03T07:58:07.116Z,100.00
2023-02-03T08:00:33.959Z,100.00
2023-02-03T08:03:00.508Z,100.00
2023-02-03T08:05:29.647Z,100.00
2023-02-03T08:07:56.909Z,100.00
2023-02-03T08:10:24.928Z,100.00
2023-02-03T08:12:55.627Z,100.00
2023-02-03T08:15:22.422Z,100.00
2023-02-03T08:17:49.937Z,100.00
2023-02-03T08:20:16.827Z,100.00
2023-02-03T08:22:43.468Z,100.00
2023-02-03T08:25:10.583Z,100.00
2023-02-03T08:27:37.245Z,100.00
2023-02-03T08:30:04.473Z,100.00
2023-02-03T08:32:30.993Z,100.00
2023-02-03T08:34:57.558Z,100.00
2023-02-03T08:37:24.632Z,100.00
2023-02-03T08:39:52.255Z,100.00
2023-02-03T08:42:18.868Z,100.00
2023-02-03T08:44:45.471Z,100.00
2023-02-03T08:47:12.624Z,100.00
2023-02-03T08:49:39.649Z,100.00
2023-02-03T08:52:07.575Z,100.00
2023-02-03T08:54:34.459Z,100.00
2023-02-03T08:57:01.056Z,100.00
2023-02-03T08:59:27.855Z,100.00
2023-02-03T09:01:54.646Z,100.00
2023-02-03T09:04:24.768Z,100.00
2023-02-03T09:06:54.454Z,100.00
2023-02-03T09:09:21.882Z,100.00
2023-02-03T09:11:48.664Z,100.00
2023-02-03T09:14:15.186Z,100.00
2023-02-03T09:16:42.012Z,100.00
2023-02-03T09:19:08.612Z,100.00
2023-02-03T09:21:46.800Z,100.00
2023-02-03T09:24:15.246Z,100.00
2023-02-03T09:26:41.766Z,100.00
2023-02-03T09:29:08.254Z,100.00
2023-02-03T09:31:34.971Z,100.00
2023-02-03T09:34:01.702Z,100.00
2023-02-03T09:36:28.236Z,100.00
2023-02-03T09:38:54.892Z,100.00
2023-02-03T09:41:44.179Z,100.00
2023-02-03T09:44:15.889Z,100.00
2023-02-03T09:46:59.821Z,100.00
2023-02-03T09:49:42.701Z,100.00
2023-02-03T09:52:19.903Z,100.00
2023-02-03T09:55:05.351Z,100.00
2023-02-03T09:57:37.501Z,100.00
2023-02-03T10:00:23.941Z,100.00
2023-02-03T10:02:58.429Z,100.00
2023-02-03T10:05:52.956Z,100.00
2023-02-03T10:08:43.990Z,100.00
2023-02-03T10:11:16.504Z,100.00
2023-02-03T10:13:50.387Z,100.00
2023-02-03T10:16:35.264Z,100.00
2023-02-03T10:19:04.307Z,100.00
2023-02-03T10:21:37.702Z,100.00
2023-02-03T10:24:09.274Z,100.00
2023-02-03T10:26:35.988Z,100.00
2023-02-03T10:29:19.906Z,100.00
2023-02-03T10:31:47.638Z,100.00
2023-02-03T10:34:16.139Z,100.00
2023-02-03T10:36:51.675Z,100.00
2023-02-03T10:39:33.594Z,100.00
2023-02-03T10:42:01.345Z,100.00
2023-02-03T10:44:36.649Z,100.00
2023-02-03T10:47:13.650Z,100.00
2023-02-03T10:49:42.070Z,100.00
2023-02-03T10:52:25.919Z,100.00
2023-02-03T10:54:52.483Z,100.00
2023-02-03T10:57:19.077Z,100.00
2023-02-03T10:59:47.538Z,100.00
2023-02-03T11:02:26.163Z,100.00
2023-02-03T11:05:28.520Z,100.00
2023-02-03T11:07:56.195Z,100.00
2023-02-03T11:10:39.052Z,100.00
2023-02-03T11:13:23.948Z,100.00
2023-02-03T11:15:56.493Z,100.00
2023-02-03T11:18:53.473Z,100.00
2023-02-03T11:21:31.445Z,100.00
2023-02-03T11:24:04.021Z,100.00
2023-02-03T11:26:42.627Z,100.00
2023-02-03T11:29:23.950Z,100.00
2023-02-03T11:31:52.508Z,100.00
2023-02-03T11:34:24.293Z,100.00
2023-02-03T11:36:51.023Z,100.00
2023-02-03T11:39:29.758Z,100.00
2023-02-03T11:41:56.460Z,100.00
2023-02-03T11:44:31.138Z,100.00
2023-02-03T11:47:19.036Z,100.00
2023-02-03T11:49:54.651Z,100.00
2023-02-03T11:52:29.966Z,100.00
2023-02-03T11:55:08.400Z,100.00
2023-02-03T11:57:59.966Z,100.00
2023-02-03T12:00:44.727Z,100.00
2023-02-03T12:03:48.899Z,100.00
2023-02-03T12:06:27.539Z,100.00
2023-02-03T12:08:59.797Z,100.00
2023-02-03T12:11:45.151Z,100.00
2023-02-03T12:14:31.398Z,100.00
2023-02-03T12:17:19.692Z,100.00
2023-02-03T12:20:11.184Z,100.00
2023-02-03T12:22:48.492Z,100.00
2023-02-03T12:25:40.177Z,100.00
2023-02-03T12:28:32.847Z,100.00
2023-02-03T12:31:24.840Z,100.00
2023-02-03T12:33:56.252Z,100.00
2023-02-03T12:36:27.687Z,100.00
2023-02-03T12:39:11.876Z,100.00
2023-02-03T12:41:42.663Z,100.00
2023-02-03T12:44:17.704Z,100.00
2023-02-03T12:46:54.023Z,100.00
2023-02-03T12:49:40.621Z,100.00
2023-02-03T12:52:31.807Z,100.00
2023-02-03T12:54:58.386Z,100.00
2023-02-03T12:57:32.803Z,100.00
2023-02-03T13:00:04.455Z,100.00
2023-02-03T13:02:39.735Z,100.00
2023-02-03T13:05:20.497Z,100.00
2023-02-03T13:07:52.048Z,100.00
2023-02-03T13:10:44.012Z,100.00
2023-02-03T13:13:13.464Z,100.00
2023-02-03T13:15:48.169Z,100.00
2023-02-03T13:18:26.562Z,100.00
2023-02-03T13:20:54.391Z,100.00
2023-02-03T13:23:21.874Z,100.00
2023-02-03T13:26:06.852Z,100.00
2023-02-03T13:28:48.746Z,100.00
2023-02-03T13:31:52.743Z,100.00
2023-02-03T13:34:39.494Z,100.00
2023-02-03T13:37:22.270Z,100.00
2023-02-03T13:40:19.835Z,100.00
2023-02-03T13:43:06.987Z,100.00
2023-02-03T13:45:40.557Z,100.00
2023-02-03T13:48:29.971Z,100.00
2023-02-03T13:51:21.321Z,100.00
2023-02-03T13:53:49.282Z,100.00
2023-02-03T13:56:20.091Z,100.00
2023-02-03T13:59:00.551Z,100.00
2023-02-03T14:01:30.627Z,100.00
2023-02-03T14:03:58.400Z,100.00
2023-02-03T14:06:40.608Z,100.00
2023-02-03T14:09:23.700Z,100.00
2023-02-03T14:11:51.748Z,100.00
2023-02-03T14:14:20.699Z,100.00
2023-02-03T14:16:54.707Z,100.00
2023-02-03T14:19:30.610Z,100.00
2023-02-03T14:22:09.331Z,100.00
2023-02-03T14:24:42.013Z,100.00
2023-02-03T14:27:26.583Z,100.00
2023-02-03T14:30:08.901Z,100.00
2023-02-03T14:32:58.136Z,100.00
2023-02-03T14:35:33.924Z,100.00
2023-02-03T14:38:03.543Z,100.00
2023-02-03T14:40:48.196Z,100.00
2023-02-03T14:43:42.558Z,100.00
2023-02-03T14:46:35.104Z,100.00
2023-02-03T14:49:23.697Z,100.00
2023-02-03T14:52:33.661Z,100.00
2023-02-03T14:55:09.319Z,100.00
2023-02-03T14:57:43.495Z,100.00
2023-02-03T15:00:23.572Z,100.00
2023-02-03T15:03:11.493Z,100.00
2023-02-03T15:05:42.092Z,100.00
2023-02-03T15:08:33.571Z,100.00
2023-02-03T15:11:05.296Z,100.00
2023-02-03T15:13:31.883Z,100.00
2023-02-03T15:16:04.148Z,100.00
2023-02-03T15:18:33.328Z,100.00
2023-02-03T15:20:59.856Z,100.00
2023-02-03T15:23:29.070Z,100.00
2023-02-03T15:25:55.584Z,100.00
2023-02-03T17:01:52.296Z,100.00
